createdAt,value
2017-07-15T00:00:48.743Z,13.30
2017-07-15T00:03:17.811Z,13.20
2017-07-15T00:05:46.054Z,13.20
2017-07-15T00:08:14.320Z,13.20
2017-07-15T00:10:43.319Z,13.20
2017-07-15T00:13:11.580Z,13.20
2017-07-15T00:15:40.620Z,13.10
2017-07-15T00:18:08.884Z,13.00
2017-07-15T00:20:37.855Z,13.00
2017-07-15T00:23:06.127Z,13.00
2017-07-15T00:25:34.419Z,13.00
2017-07-15T00:28:02.726Z,13.00
2017-07-15T00:30:30.969Z,13.00
2017-07-15T00:33:00.012Z,13.10
2017-07-15T00:35:28.240Z,13.10
2017-07-15T00:37:57.282Z,13.10
2017-07-15T00:40:25.537Z,13.10
2017-07-15T00:42:54.218Z,13.10
2017-07-15T00:45:22.466Z,13.10
2017-07-15T00:47:50.715Z,13.20
2017-07-15T00:50:18.962Z,13.30
2017-07-15T00:52:47.222Z,13.40
2017-07-15T00:55:15.531Z,13.50
2017-07-15T00:57:43.767Z,13.60
2017-07-15T01:00:12.068Z,13.70
2017-07-15T01:02:40.311Z,13.80
2017-07-15T01:05:09.310Z,14.00
2017-07-15T01:07:37.603Z,14.00
2017-07-15T01:10:05.826Z,13.90
2017-07-15T01:12:34.098Z,14.10
2017-07-15T01:15:02.356Z,14.00
2017-07-15T01:17:30.631Z,14.10
2017-07-15T01:19:58.888Z,14.10
2017-07-15T01:22:27.151Z,14.10
2017-07-15T01:24:55.446Z,14.10
2017-07-15T01:27:24.438Z,14.20
2017-07-15T01:29:52.698Z,14.20
2017-07-15T01:32:20.959Z,14.20
2017-07-15T01:34:49.975Z,13.90
2017-07-15T01:37:18.241Z,13.80
2017-07-15T01:39:46.508Z,13.80
2017-07-15T01:42:15.515Z,13.50
2017-07-15T01:44:43.827Z,13.50
2017-07-15T01:47:12.076Z,13.50
2017-07-15T01:49:41.106Z,13.60
2017-07-15T01:52:09.343Z,13.60
2017-07-15T01:54:37.589Z,13.70
2017-07-15T01:57:06.602Z,13.80
2017-07-15T01:59:34.892Z,13.80
2017-07-15T02:02:03.192Z,13.80
2017-07-15T02:04:31.473Z,13.90
2017-07-15T02:06:59.728Z,13.90
2017-07-15T02:09:27.984Z,13.90
2017-07-15T02:11:57.016Z,13.90
2017-07-15T02:14:25.275Z,13.90
2017-07-15T02:16:53.595Z,13.80
2017-07-15T02:19:21.868Z,13.80
2017-07-15T02:21:50.127Z,13.70
2017-07-15T02:24:18.395Z,13.70
2017-07-15T02:26:46.898Z,13.60
2017-07-15T02:29:15.159Z,13.50
2017-07-15T02:31:43.436Z,13.40
2017-07-15T02:34:11.687Z,13.30
2017-07-15T02:36:40.726Z,13.30
2017-07-15T02:39:08.958Z,13.30
2017-07-15T02:41:37.330Z,13.30
2017-07-15T02:44:05.594Z,13.30
2017-07-15T02:46:33.824Z,13.10
2017-07-15T02:49:02.116Z,13.10
2017-07-15T02:51:30.384Z,13.10
2017-07-15T02:53:58.667Z,13.10
2017-07-15T02:56:26.919Z,13.10
2017-07-15T02:58:55.209Z,13.20
2017-07-15T03:01:23.451Z,13.20
2017-07-15T03:03:52.533Z,13.20
2017-07-15T03:06:21.169Z,13.20
2017-07-15T03:08:49.408Z,13.10
2017-07-15T03:11:18.429Z,13.10
2017-07-15T03:13:46.668Z,13.10
2017-07-15T03:16:14.942Z,13.20
2017-07-15T03:18:43.244Z,13.10
2017-07-15T03:21:12.263Z,13.10
2017-07-15T03:23:40.550Z,13.10
2017-07-15T03:26:08.817Z,13.00
2017-07-15T03:28:37.084Z,13.00
2017-07-15T03:31:05.369Z,13.00
2017-07-15T03:33:33.674Z,13.00
2017-07-15T03:36:01.932Z,12.90
2017-07-15T03:38:30.184Z,13.00
2017-07-15T03:40:58.489Z,13.10
2017-07-15T03:43:26.718Z,13.20
2017-07-15T03:45:55.737Z,13.40
2017-07-15T03:48:23.996Z,13.40
2017-07-15T03:50:52.993Z,13.40
2017-07-15T03:53:22.026Z,13.40
2017-07-15T03:55:50.313Z,13.40
2017-07-15T03:58:18.574Z,13.50
2017-07-15T04:00:46.802Z,13.40
2017-07-15T04:03:15.063Z,13.40
2017-07-15T04:05:43.418Z,13.30
2017-07-15T04:08:12.152Z,13.30
2017-07-15T04:10:41.191Z,13.40
2017-07-15T04:13:09.450Z,13.40
2017-07-15T04:15:37.703Z,13.30
2017-07-15T04:18:06.757Z,13.40
2017-07-15T04:20:35.049Z,13.40
2017-07-15T04:23:03.281Z,13.30
2017-07-15T04:25:31.537Z,13.40
2017-07-15T04:28:00.615Z,13.40
2017-07-15T04:30:28.862Z,13.30
2017-07-15T04:32:57.130Z,13.40
2017-07-15T04:35:25.395Z,13.30
2017-07-15T04:37:54.516Z,13.40
2017-07-15T04:40:22.789Z,13.50
2017-07-15T04:42:51.044Z,13.50
2017-07-15T04:45:19.315Z,13.60
2017-07-15T04:47:47.551Z,13.60
2017-07-15T04:50:15.783Z,13.70
2017-07-15T04:52:44.095Z,13.60
2017-07-15T04:55:12.370Z,13.50
2017-07-15T04:57:40.648Z,13.50
2017-07-15T05:00:08.872Z,13.50
2017-07-15T05:02:37.187Z,13.60
2017-07-15T05:05:05.444Z,13.50
2017-07-15T05:07:33.718Z,13.60
2017-07-15T05:10:01.950Z,13.70
2017-07-15T05:12:31.019Z,14.00
2017-07-15T05:14:59.278Z,13.90
2017-07-15T05:17:27.509Z,13.60
2017-07-15T05:19:56.548Z,13.40
2017-07-15T05:22:24.833Z,13.40
2017-07-15T05:24:53.107Z,13.50
2017-07-15T05:27:21.351Z,13.60
2017-07-15T05:29:49.629Z,13.80
2017-07-15T05:32:18.648Z,13.70
2017-07-15T05:34:46.916Z,13.70
2017-07-15T05:37:15.562Z,13.60
2017-07-15T05:39:44.599Z,13.60
2017-07-15T05:42:12.932Z,13.60
2017-07-15T05:44:41.187Z,13.80
2017-07-15T05:47:09.428Z,13.90
2017-07-15T05:49:37.731Z,13.80
2017-07-15T05:52:05.973Z,13.60
2017-07-15T05:54:34.245Z,13.50
2017-07-15T05:57:02.508Z,13.70
2017-07-15T05:59:31.523Z,13.90
2017-07-15T06:01:59.779Z,13.90
2017-07-15T06:04:28.063Z,14.10
2017-07-15T06:06:56.325Z,14.00
2017-07-15T06:09:25.399Z,14.00
2017-07-15T06:11:53.671Z,13.90
2017-07-15T06:14:21.922Z,14.10
2017-07-15T06:16:50.215Z,14.10
2017-07-15T06:19:18.480Z,14.20
2017-07-15T06:21:46.743Z,14.40
2017-07-15T06:24:15.005Z,14.60
2017-07-15T06:26:44.014Z,15.10
2017-07-15T06:29:12.311Z,15.10
2017-07-15T06:31:40.876Z,15.20
2017-07-15T06:34:09.100Z,15.20
2017-07-15T06:36:37.389Z,15.20
2017-07-15T06:39:06.524Z,15.50
2017-07-15T06:41:34.850Z,15.50
2017-07-15T06:44:03.087Z,15.30
2017-07-15T06:46:31.350Z,15.20
2017-07-15T06:48:59.657Z,15.40
2017-07-15T06:51:27.896Z,15.40
2017-07-15T06:53:56.166Z,15.40
2017-07-15T06:56:24.433Z,15.30
2017-07-15T06:58:52.729Z,15.10
2017-07-15T07:01:21.763Z,15.10
2017-07-15T07:03:50.051Z,15.00
2017-07-15T07:06:18.299Z,15.20
2017-07-15T07:08:46.529Z,15.00
2017-07-15T07:11:15.600Z,14.90
2017-07-15T07:13:44.696Z,14.80
2017-07-15T07:16:12.948Z,14.80
2017-07-15T07:18:41.247Z,14.90
2017-07-15T07:21:09.476Z,14.80
2017-07-15T07:23:37.738Z,14.70
2017-07-15T07:26:06.747Z,14.70
2017-07-15T07:28:34.995Z,14.70
2017-07-15T07:31:03.638Z,14.90
2017-07-15T07:33:32.021Z,15.20
2017-07-15T07:36:00.258Z,15.40
2017-07-15T07:38:29.318Z,15.30
2017-07-15T07:40:57.549Z,15.30
2017-07-15T07:43:25.812Z,15.20
2017-07-15T07:45:54.101Z,15.10
2017-07-15T07:48:22.390Z,15.00
2017-07-15T07:50:50.678Z,15.00
2017-07-15T07:53:18.933Z,15.20
2017-07-15T07:55:47.162Z,15.30
2017-07-15T07:58:15.436Z,15.60
2017-07-15T08:00:43.780Z,15.60
2017-07-15T08:03:12.029Z,15.90
2017-07-15T08:05:41.118Z,16.40
2017-07-15T08:08:09.372Z,16.30
2017-07-15T08:10:37.634Z,16.30
2017-07-15T08:13:05.925Z,16.20
2017-07-15T08:15:34.179Z,16.30
2017-07-15T08:18:02.455Z,16.30
2017-07-15T08:20:30.741Z,15.90
2017-07-15T08:22:59.018Z,15.80
2017-07-15T08:25:27.481Z,15.90
2017-07-15T08:27:55.708Z,15.90
2017-07-15T08:30:24.786Z,15.90
2017-07-15T08:32:53.032Z,15.90
2017-07-15T08:35:21.297Z,15.90
2017-07-15T08:37:49.556Z,16.00
2017-07-15T08:40:17.823Z,15.80
2017-07-15T08:42:46.108Z,15.80
2017-07-15T08:45:15.167Z,16.20
2017-07-15T08:47:43.467Z,16.10
2017-07-15T08:50:12.478Z,16.30
2017-07-15T08:52:40.743Z,16.30
2017-07-15T08:55:09.813Z,16.20
2017-07-15T08:57:38.105Z,16.20
2017-07-15T09:00:07.151Z,16.10
2017-07-15T09:02:35.439Z,16.10
2017-07-15T09:05:03.707Z,16.10
2017-07-15T09:07:32.413Z,16.00
2017-07-15T09:10:00.623Z,15.90
2017-07-15T09:12:29.027Z,15.90
2017-07-15T09:14:58.064Z,16.00
2017-07-15T09:17:26.373Z,16.00
2017-07-15T09:19:55.384Z,16.10
2017-07-15T09:22:23.656Z,16.10
2017-07-15T09:24:51.946Z,16.30
2017-07-15T09:27:20.971Z,16.20
2017-07-15T09:29:49.235Z,16.20
2017-07-15T09:32:17.490Z,16.50
2017-07-15T09:34:46.549Z,16.80
2017-07-15T09:37:14.792Z,16.80
2017-07-15T09:39:43.067Z,17.10
2017-07-15T09:42:11.307Z,17.00
2017-07-15T09:44:40.319Z,17.00
2017-07-15T09:47:08.596Z,16.90
2017-07-15T09:49:36.856Z,16.90
2017-07-15T09:52:05.912Z,17.00
2017-07-15T09:54:34.614Z,17.00
2017-07-15T09:57:02.878Z,17.40
2017-07-15T09:59:31.148Z,17.60
2017-07-15T10:01:59.477Z,18.00
2017-07-15T10:04:28.508Z,18.70
2017-07-15T10:06:56.847Z,18.70
2017-07-15T10:09:25.147Z,18.80
2017-07-15T10:11:53.429Z,19.00
2017-07-15T10:14:21.684Z,19.20
2017-07-15T10:16:50.729Z,19.30
2017-07-15T10:19:18.971Z,19.20
2017-07-15T10:21:47.215Z,19.50
2017-07-15T10:24:16.276Z,19.40
2017-07-15T10:26:44.555Z,19.30
2017-07-15T10:29:12.815Z,19.20
2017-07-15T10:31:41.098Z,19.20
2017-07-15T10:34:09.460Z,19.10
2017-07-15T10:36:37.737Z,18.80
2017-07-15T10:39:05.967Z,18.40
2017-07-15T10:41:35.002Z,17.50
2017-07-15T10:44:03.327Z,17.50
2017-07-15T10:46:31.588Z,17.50
2017-07-15T10:48:59.889Z,17.10
2017-07-15T10:51:28.174Z,17.10
2017-07-15T10:53:56.454Z,17.00
2017-07-15T10:56:25.502Z,17.20
2017-07-15T10:58:53.796Z,17.20
2017-07-15T11:01:22.097Z,17.20
2017-07-15T11:03:51.188Z,17.30
2017-07-15T11:06:19.456Z,17.30
2017-07-15T11:08:47.722Z,17.60
2017-07-15T11:11:16.047Z,17.70
2017-07-15T11:13:45.047Z,18.30
2017-07-15T11:16:13.336Z,18.30
2017-07-15T11:18:41.607Z,18.60
2017-07-15T11:21:09.887Z,18.80
2017-07-15T11:23:38.321Z,19.10
2017-07-15T11:26:06.580Z,19.30
2017-07-15T11:28:34.860Z,19.50
2017-07-15T11:31:03.097Z,19.40
2017-07-15T11:33:31.355Z,19.40
2017-07-15T11:35:59.620Z,19.60
2017-07-15T11:38:27.899Z,19.60
2017-07-15T11:40:57.021Z,19.50
2017-07-15T11:43:26.065Z,19.50
2017-07-15T11:45:54.353Z,19.40
2017-07-15T11:48:22.645Z,19.60
2017-07-15T11:50:51.496Z,19.60
2017-07-15T11:53:19.869Z,19.30
2017-07-15T11:55:48.124Z,18.80
2017-07-15T11:58:16.723Z,18.90
2017-07-15T12:00:45.734Z,18.80
2017-07-15T12:03:15.443Z,18.80
2017-07-15T12:05:43.756Z,18.60
2017-07-15T12:08:12.025Z,18.50
2017-07-15T12:10:40.353Z,18.50
2017-07-15T12:13:08.621Z,18.70
2017-07-15T12:15:37.022Z,18.90
2017-07-15T12:18:05.250Z,19.10
2017-07-15T12:20:34.286Z,19.40
2017-07-15T12:23:02.548Z,19.40
2017-07-15T12:25:30.805Z,19.60
2017-07-15T12:27:59.059Z,19.50
2017-07-15T12:30:27.315Z,19.80
2017-07-15T12:32:56.394Z,20.00
2017-07-15T12:35:25.406Z,20.20
2017-07-15T12:37:53.700Z,20.20
2017-07-15T12:40:21.992Z,20.20
2017-07-15T12:42:51.044Z,20.40
2017-07-15T12:45:19.301Z,20.40
2017-07-15T12:47:47.582Z,20.80
2017-07-15T12:50:15.887Z,20.90
2017-07-15T12:52:44.253Z,20.70
2017-07-15T12:55:12.505Z,20.90
2017-07-15T12:57:41.537Z,20.50
2017-07-15T13:00:09.831Z,20.50
2017-07-15T13:02:38.109Z,20.30
2017-07-15T13:05:06.385Z,20.20
2017-07-15T13:07:35.491Z,20.30
2017-07-15T13:10:03.745Z,20.30
2017-07-15T13:12:32.037Z,20.40
2017-07-15T13:15:00.318Z,20.40
2017-07-15T13:17:28.564Z,20.40
2017-07-15T13:19:56.812Z,20.30
2017-07-15T13:22:25.935Z,20.70
2017-07-15T13:24:54.952Z,20.70
2017-07-15T13:27:23.226Z,20.70
2017-07-15T13:29:51.476Z,20.70
2017-07-15T13:32:19.764Z,20.80
2017-07-15T13:34:48.030Z,20.80
2017-07-15T13:37:16.321Z,20.80
2017-07-15T13:39:44.604Z,20.70
2017-07-15T13:42:12.927Z,20.70
2017-07-15T13:44:41.166Z,20.80
2017-07-15T13:47:09.421Z,21.30
2017-07-15T13:49:37.698Z,21.60
2017-07-15T13:52:05.946Z,21.50
2017-07-15T13:54:34.969Z,21.10
2017-07-15T13:57:03.231Z,21.10
2017-07-15T13:59:31.499Z,21.10
2017-07-15T14:02:00.545Z,21.50
2017-07-15T14:04:28.823Z,21.50
2017-07-15T14:06:57.084Z,21.60
2017-07-15T14:09:25.467Z,21.80
2017-07-15T14:11:53.727Z,21.80
2017-07-15T14:14:21.969Z,21.70
2017-07-15T14:16:50.312Z,21.80
2017-07-15T14:19:18.575Z,21.40
2017-07-15T14:21:46.836Z,21.40
2017-07-15T14:24:15.145Z,21.30
2017-07-15T14:26:43.390Z,21.40
2017-07-15T14:29:11.669Z,21.30
2017-07-15T14:31:39.905Z,21.50
2017-07-15T14:34:09.059Z,21.30
2017-07-15T14:36:37.300Z,21.60
2017-07-15T14:39:06.296Z,20.60
2017-07-15T14:41:35.314Z,20.90
2017-07-15T14:44:03.584Z,20.80
2017-07-15T14:46:31.852Z,20.90
2017-07-15T14:49:00.168Z,21.20
2017-07-15T14:51:28.501Z,21.10
2017-07-15T14:53:56.802Z,21.10
2017-07-15T14:56:25.068Z,21.20
2017-07-15T14:58:53.377Z,21.50
2017-07-15T15:01:21.659Z,21.80
2017-07-15T15:03:49.939Z,21.90
2017-07-15T15:06:18.456Z,21.90
2017-07-15T15:08:47.507Z,22.30
2017-07-15T15:11:16.689Z,22.30
2017-07-15T15:13:45.085Z,22.30
2017-07-15T15:16:13.321Z,22.20
2017-07-15T15:18:42.348Z,22.00
2017-07-15T15:21:10.610Z,22.00
2017-07-15T15:23:38.881Z,21.90
2017-07-15T15:26:07.885Z,21.70
2017-07-15T15:28:36.145Z,21.70
2017-07-15T15:31:05.169Z,22.10
2017-07-15T15:33:33.476Z,22.10
2017-07-15T15:36:01.769Z,22.40
2017-07-15T15:38:30.085Z,22.50
2017-07-15T15:40:59.421Z,22.00
2017-07-15T15:43:27.804Z,22.00
2017-07-15T15:45:56.076Z,21.90
2017-07-15T15:48:25.154Z,22.10
2017-07-15T15:50:53.417Z,22.00
2017-07-15T15:53:21.736Z,22.10
2017-07-15T15:55:50.008Z,22.20
2017-07-15T15:58:18.363Z,22.40
2017-07-15T16:00:46.605Z,22.10
2017-07-15T16:03:15.635Z,22.40
2017-07-15T16:05:43.911Z,22.40
2017-07-15T16:08:12.603Z,22.50
2017-07-15T16:10:40.919Z,22.60
2017-07-15T16:13:09.185Z,22.50
2017-07-15T16:15:37.431Z,22.60
2017-07-15T16:18:05.727Z,22.40
2017-07-15T16:20:34.027Z,22.40
2017-07-15T16:23:02.289Z,22.50
2017-07-15T16:25:30.597Z,22.70
2017-07-15T16:27:59.619Z,22.00
2017-07-15T16:30:27.895Z,22.00
2017-07-15T16:32:56.158Z,21.90
2017-07-15T16:35:25.340Z,21.80
2017-07-15T16:37:53.615Z,21.80
2017-07-15T16:40:22.627Z,21.80
2017-07-15T16:42:50.930Z,21.80
2017-07-15T16:45:19.199Z,21.60
2017-07-15T16:47:47.493Z,21.30
2017-07-15T16:50:15.743Z,21.40
2017-07-15T16:52:43.991Z,21.50
2017-07-15T16:55:12.317Z,21.70
2017-07-15T16:57:40.978Z,21.90
2017-07-15T17:00:10.015Z,22.10
2017-07-15T17:02:38.300Z,22.00
2017-07-15T17:05:06.575Z,22.10
2017-07-15T17:07:34.859Z,22.20
2017-07-15T17:10:03.126Z,22.00
2017-07-15T17:12:31.410Z,21.70
2017-07-15T17:14:59.680Z,21.50
2017-07-15T17:17:27.966Z,21.30
2017-07-15T17:19:56.244Z,21.20
2017-07-15T17:22:24.493Z,21.30
2017-07-15T17:24:52.815Z,21.30
2017-07-15T17:27:21.049Z,21.30
2017-07-15T17:29:49.667Z,21.30
2017-07-15T17:32:17.927Z,21.30
2017-07-15T17:34:47.298Z,21.30
2017-07-15T17:37:15.595Z,21.30
2017-07-15T17:39:44.299Z,21.30
2017-07-15T17:42:13.048Z,21.30
2017-07-15T17:44:41.301Z,21.40
2017-07-15T17:47:10.332Z,21.50
2017-07-15T17:49:38.629Z,21.40
2017-07-15T17:52:06.987Z,21.40
2017-07-15T17:54:35.444Z,21.30
2017-07-15T17:57:03.709Z,21.30
2017-07-15T17:59:32.067Z,21.40
2017-07-15T18:02:00.328Z,21.30
2017-07-15T18:04:28.601Z,21.30
2017-07-15T18:06:56.893Z,21.30
2017-07-15T18:09:25.680Z,21.20
2017-07-15T18:11:53.993Z,21.20
2017-07-15T18:14:22.231Z,21.10
2017-07-15T18:16:50.509Z,21.10
2017-07-15T18:19:18.777Z,20.90
2017-07-15T18:21:48.263Z,20.90
2017-07-15T18:24:16.505Z,20.80
2017-07-15T18:26:45.539Z,20.70
2017-07-15T18:29:13.829Z,20.70
2017-07-15T18:31:42.132Z,20.60
2017-07-15T18:34:10.378Z,20.60
2017-07-15T18:36:38.681Z,20.50
2017-07-15T18:39:07.018Z,20.40
2017-07-15T18:41:36.046Z,20.00
2017-07-15T18:44:04.362Z,20.00
2017-07-15T18:46:32.686Z,19.80
2017-07-15T18:49:00.936Z,19.80
2017-07-15T18:51:29.234Z,19.70
2017-07-15T18:53:57.472Z,19.60
2017-07-15T18:56:26.560Z,19.30
2017-07-15T18:58:54.831Z,19.30
2017-07-15T19:01:23.077Z,19.20
2017-07-15T19:03:51.367Z,19.20
2017-07-15T19:06:19.653Z,19.20
2017-07-15T19:08:48.730Z,19.10
2017-07-15T19:11:17.020Z,19.10
2017-07-15T19:13:45.280Z,18.90
2017-07-15T19:16:13.558Z,18.70
2017-07-15T19:18:41.807Z,18.50
2017-07-15T19:21:10.074Z,18.30
2017-07-15T19:23:38.344Z,18.10
2017-07-15T19:26:07.388Z,17.90
2017-07-15T19:28:35.642Z,17.80
2017-07-15T19:31:03.958Z,17.70
2017-07-15T19:33:32.191Z,17.70
2017-07-15T19:36:00.507Z,17.60
2017-07-15T19:38:28.819Z,17.60
2017-07-15T19:40:57.863Z,17.30
2017-07-15T19:43:26.136Z,17.30
2017-07-15T19:45:54.417Z,17.20
2017-07-15T19:48:22.668Z,17.10
2017-07-15T19:50:50.933Z,17.00
2017-07-15T19:53:19.974Z,16.90
2017-07-15T19:55:48.286Z,16.90
2017-07-15T19:58:26.445Z,17.00
2017-07-15T20:00:54.719Z,17.00
2017-07-15T20:03:23.002Z,16.90
2017-07-15T20:05:51.289Z,16.80
2017-07-15T20:08:19.595Z,16.80
2017-07-15T20:10:47.863Z,16.70
2017-07-15T20:13:16.217Z,16.70
2017-07-15T20:15:44.552Z,16.60
2017-07-15T20:18:12.819Z,16.50
2017-07-15T20:20:41.951Z,16.40
2017-07-15T20:23:10.216Z,16.40
2017-07-15T20:25:38.493Z,16.40
2017-07-15T20:28:06.815Z,16.30
2017-07-15T20:30:35.058Z,16.20
2017-07-15T20:33:03.294Z,16.10
2017-07-15T20:35:31.566Z,16.10
2017-07-15T20:37:59.898Z,16.00
2017-07-15T20:40:28.201Z,16.00
2017-07-15T20:42:56.520Z,15.90
2017-07-15T20:45:25.587Z,15.80
2017-07-15T20:47:53.856Z,15.80
2017-07-15T20:50:22.157Z,15.80
2017-07-15T20:53:09.239Z,15.80
2017-07-15T20:55:37.502Z,15.80
2017-07-15T20:58:05.816Z,15.80
2017-07-15T21:00:34.076Z,15.80
2017-07-15T21:03:02.350Z,15.80
2017-07-15T21:05:30.669Z,15.70
2017-07-15T21:07:58.960Z,15.70
2017-07-15T21:10:27.973Z,15.80
2017-07-15T21:12:56.211Z,15.80
2017-07-15T21:15:24.472Z,15.90
2017-07-15T21:17:52.738Z,15.90
2017-07-15T21:20:21.040Z,15.70
2017-07-15T21:22:49.294Z,15.70
2017-07-15T21:25:17.581Z,15.60
2017-07-15T21:27:45.853Z,15.50
2017-07-15T21:30:14.134Z,15.50
2017-07-15T21:32:42.419Z,15.50
2017-07-15T21:35:10.780Z,15.40
2017-07-15T21:37:39.068Z,15.40
2017-07-15T21:40:07.355Z,15.40
2017-07-15T21:42:35.615Z,15.40
2017-07-15T21:45:03.923Z,15.40
2017-07-15T21:47:32.964Z,15.40
2017-07-15T21:50:01.265Z,15.30
2017-07-15T21:52:29.568Z,15.40
2017-07-15T21:54:57.821Z,15.40
2017-07-15T21:57:26.145Z,15.40
2017-07-15T21:59:54.513Z,15.50
2017-07-15T22:02:22.775Z,15.40
2017-07-15T22:04:51.838Z,15.50
2017-07-15T22:07:20.100Z,15.50
2017-07-15T22:09:48.372Z,15.40
2017-07-15T22:12:16.719Z,15.50
2017-07-15T22:14:45.764Z,15.50
2017-07-15T22:17:14.004Z,15.40
2017-07-15T22:19:43.039Z,15.60
2017-07-15T22:22:11.318Z,15.60
2017-07-15T22:24:39.661Z,15.60
2017-07-15T22:27:07.961Z,15.70
2017-07-15T22:29:36.199Z,15.80
2017-07-15T22:32:05.221Z,15.90
2017-07-15T22:34:33.504Z,15.90
2017-07-15T22:37:02.893Z,16.10
2017-07-15T22:39:32.089Z,16.10
2017-07-15T22:42:00.327Z,16.20
2017-07-15T22:44:28.648Z,16.20
2017-07-15T22:46:57.637Z,16.20
2017-07-15T22:49:25.905Z,16.20
2017-07-15T22:51:54.967Z,16.10
2017-07-15T22:54:23.232Z,16.10
2017-07-15T22:56:51.496Z,16.10
2017-07-15T22:59:19.782Z,16.20
2017-07-15T23:01:48.049Z,16.10
2017-07-15T23:04:16.333Z,16.10
2017-07-15T23:06:44.739Z,16.10
2017-07-15T23:09:13.025Z,16.20
2017-07-15T23:11:41.298Z,16.20
2017-07-15T23:14:09.549Z,16.20
2017-07-15T23:16:38.035Z,16.20
2017-07-15T23:19:06.277Z,16.20
2017-07-15T23:21:34.525Z,16.10
2017-07-15T23:24:02.819Z,16.20
2017-07-15T23:26:31.807Z,16.10
2017-07-15T23:29:00.819Z,16.20
2017-07-15T23:31:29.099Z,16.20
2017-07-15T23:33:58.079Z,16.20
2017-07-15T23:36:26.356Z,16.20
2017-07-15T23:38:55.357Z,16.10
2017-07-15T23:41:23.615Z,16.10
2017-07-15T23:43:51.887Z,16.10
2017-07-15T23:46:20.111Z,16.10
2017-07-15T23:48:48.417Z,16.00
2017-07-15T23:51:16.660Z,16.00
2017-07-15T23:53:44.906Z,16.00
2017-07-15T23:56:13.930Z,16.10
2017-07-15T23:58:42.186Z,16.00
